createdAt,value
2017-06-09T00:00:12.020Z,63.72
2017-06-09T00:02:42.478Z,63.87
2017-06-09T00:05:12.421Z,63.79
2017-06-09T00:07:42.274Z,63.69
2017-06-09T00:10:12.248Z,63.45
2017-06-09T00:12:42.192Z,64.10
2017-06-09T00:15:12.294Z,63.98
2017-06-09T00:17:42.185Z,64.28
2017-06-09T00:20:12.037Z,63.88
2017-06-09T00:22:42.224Z,63.64
2017-06-09T00:25:12.221Z,63.35
2017-06-09T00:27:42.122Z,64.19
2017-06-09T00:30:11.981Z,64.59
2017-06-09T00:32:41.877Z,63.79
2017-06-09T00:35:11.765Z,63.76
2017-06-09T00:37:41.620Z,63.68
2017-06-09T00:40:11.506Z,63.65
2017-06-09T00:42:41.383Z,63.67
2017-06-09T00:45:11.300Z,63.67
2017-06-09T00:47:41.184Z,63.65
2017-06-09T00:50:11.047Z,63.86
2017-06-09T00:52:40.921Z,63.91
2017-06-09T00:55:10.795Z,63.94
2017-06-09T00:57:40.690Z,64.57
2017-06-09T01:00:10.600Z,65.21
2017-06-09T01:02:40.499Z,65.67
2017-06-09T01:05:10.345Z,66.05
2017-06-09T01:07:40.221Z,66.06
2017-06-09T01:10:10.098Z,66.18
2017-06-09T01:12:39.983Z,66.72
2017-06-09T01:15:09.867Z,66.41
2017-06-09T01:17:39.716Z,66.44
2017-06-09T01:20:09.626Z,66.83
2017-06-09T01:22:39.479Z,66.99
2017-06-09T01:25:09.333Z,66.95
2017-06-09T01:27:39.224Z,66.55
2017-06-09T01:30:09.070Z,66.47
2017-06-09T01:32:38.947Z,66.58
2017-06-09T01:35:08.801Z,66.24
2017-06-09T01:37:38.754Z,66.20
2017-06-09T01:40:08.252Z,66.47
2017-06-09T01:42:38.119Z,66.68
2017-06-09T01:45:08.000Z,66.28
2017-06-09T01:47:37.496Z,65.79
2017-06-09T01:50:07.445Z,65.64
2017-06-09T01:52:37.395Z,65.36
2017-06-09T01:55:07.297Z,65.43
2017-06-09T01:57:36.859Z,65.64
2017-06-09T02:00:06.000Z,65.56
2017-06-09T02:02:35.909Z,66.37
2017-06-09T02:05:05.768Z,66.23
2017-06-09T02:07:35.731Z,66.69
2017-06-09T02:10:05.647Z,66.43
2017-06-09T02:12:35.549Z,65.92
2017-06-09T02:15:05.440Z,65.70
2017-06-09T02:17:35.317Z,65.25
2017-06-09T02:20:05.201Z,65.21
2017-06-09T02:22:35.053Z,65.24
2017-06-09T02:25:04.939Z,65.27
2017-06-09T02:27:34.821Z,65.38
2017-06-09T02:30:04.678Z,65.37
2017-06-09T02:32:34.561Z,65.93
2017-06-09T02:35:04.405Z,65.78
2017-06-09T02:37:34.285Z,65.61
2017-06-09T02:40:04.205Z,65.26
2017-06-09T02:42:34.147Z,65.77
2017-06-09T02:45:04.015Z,66.24
2017-06-09T02:47:33.877Z,66.14
2017-06-09T02:50:03.753Z,66.32
2017-06-09T02:52:33.598Z,66.32
2017-06-09T02:55:03.571Z,66.15
2017-06-09T02:57:33.422Z,66.31
2017-06-09T03:00:03.289Z,66.44
2017-06-09T03:02:33.175Z,65.94
2017-06-09T03:05:03.055Z,65.35
2017-06-09T03:07:32.995Z,65.44
2017-06-09T03:10:02.890Z,65.63
2017-06-09T03:12:32.818Z,65.43
2017-06-09T03:15:02.681Z,65.48
2017-06-09T03:17:33.323Z,65.56
2017-06-09T03:20:03.187Z,65.14
2017-06-09T03:22:33.043Z,65.51
2017-06-09T03:25:02.962Z,65.70
2017-06-09T03:27:32.810Z,65.52
2017-06-09T03:30:02.720Z,65.62
2017-06-09T03:32:37.945Z,65.52
2017-06-09T03:35:07.903Z,65.54
2017-06-09T03:37:37.778Z,66.51
2017-06-09T03:40:07.666Z,66.05
2017-06-09T03:42:38.564Z,66.47
2017-06-09T03:45:10.617Z,66.78
2017-06-09T03:47:40.557Z,67.00
2017-06-09T03:50:10.411Z,67.24
2017-06-09T03:52:40.268Z,67.37
2017-06-09T03:55:10.310Z,67.62
2017-06-09T03:57:40.201Z,67.58
2017-06-09T04:00:10.131Z,67.62
2017-06-09T04:02:39.988Z,67.31
2017-06-09T04:05:09.839Z,66.87
2017-06-09T04:07:39.720Z,66.57
2017-06-09T04:10:09.630Z,65.87
2017-06-09T04:12:39.552Z,65.53
2017-06-09T04:15:09.435Z,64.93
2017-06-09T04:17:39.293Z,64.65
2017-06-09T04:20:09.168Z,64.45
2017-06-09T04:22:39.033Z,63.98
2017-06-09T04:25:08.948Z,63.60
2017-06-09T04:27:38.826Z,63.12
2017-06-09T04:30:08.689Z,63.29
2017-06-09T04:32:38.562Z,63.13
2017-06-09T04:35:08.433Z,63.39
2017-06-09T04:37:38.331Z,62.64
2017-06-09T04:40:08.185Z,62.93
2017-06-09T04:42:38.058Z,63.17
2017-06-09T04:45:07.935Z,63.44
2017-06-09T04:47:37.801Z,63.57
2017-06-09T04:50:07.737Z,63.85
2017-06-09T04:52:37.596Z,63.79
2017-06-09T04:55:07.468Z,63.79
2017-06-09T04:57:37.949Z,63.58
2017-06-09T05:00:07.809Z,63.17
2017-06-09T05:02:37.718Z,62.87
2017-06-09T05:05:07.571Z,62.32
2017-06-09T05:07:38.206Z,62.21
2017-06-09T05:10:08.075Z,62.55
2017-06-09T05:12:37.960Z,62.98
2017-06-09T05:15:07.836Z,62.91
2017-06-09T05:17:37.713Z,63.29
2017-06-09T05:20:07.459Z,63.69
2017-06-09T05:22:37.310Z,63.85
2017-06-09T05:25:06.984Z,64.25
2017-06-09T05:27:36.719Z,64.21
2017-06-09T05:30:06.591Z,64.39
2017-06-09T05:32:36.323Z,64.28
2017-06-09T05:35:06.191Z,64.65
2017-06-09T05:37:36.041Z,64.79
2017-06-09T05:40:05.908Z,65.31
2017-06-09T05:42:35.764Z,64.74
2017-06-09T05:45:05.681Z,64.87
2017-06-09T05:47:36.218Z,64.75
2017-06-09T05:50:06.076Z,65.22
2017-06-09T05:52:35.956Z,64.35
2017-06-09T05:55:05.807Z,64.17
2017-06-09T05:57:35.799Z,64.17
2017-06-09T06:00:05.649Z,63.80
2017-06-09T06:02:35.496Z,64.12
2017-06-09T06:05:05.375Z,64.27
2017-06-09T06:07:35.228Z,64.45
2017-06-09T06:10:05.133Z,64.27
2017-06-09T06:12:34.991Z,63.58
2017-06-09T06:15:04.869Z,62.75
2017-06-09T06:17:34.767Z,62.67
2017-06-09T06:20:04.997Z,62.55
2017-06-09T06:22:34.895Z,61.57
2017-06-09T06:25:04.760Z,61.34
2017-06-09T06:27:34.667Z,61.85
2017-06-09T06:30:04.525Z,62.48
2017-06-09T06:32:34.375Z,62.12
2017-06-09T06:35:04.275Z,62.27
2017-06-09T06:37:34.179Z,62.30
2017-06-09T06:40:04.082Z,61.90
2017-06-09T06:42:33.940Z,62.01
2017-06-09T06:45:03.827Z,62.01
2017-06-09T06:47:33.707Z,61.09
2017-06-09T06:50:03.558Z,61.61
2017-06-09T06:52:33.455Z,60.76
2017-06-09T06:55:03.305Z,59.93
2017-06-09T06:57:33.162Z,59.20
2017-06-09T07:00:03.044Z,59.93
2017-06-09T07:02:32.906Z,60.26
2017-06-09T07:05:02.947Z,59.58
2017-06-09T07:07:32.929Z,59.08
2017-06-09T07:10:02.819Z,59.27
2017-06-09T07:12:32.680Z,59.17
2017-06-09T07:15:02.537Z,58.83
2017-06-09T07:17:32.422Z,58.22
2017-06-09T07:20:02.293Z,58.61
2017-06-09T07:22:32.188Z,58.28
2017-06-09T07:25:02.052Z,57.79
2017-06-09T07:27:31.953Z,57.31
2017-06-09T07:30:01.841Z,56.20
2017-06-09T07:32:31.711Z,55.23
2017-06-09T07:35:01.624Z,55.49
2017-06-09T07:37:36.049Z,56.02
2017-06-09T07:40:05.927Z,55.25
2017-06-09T07:42:35.784Z,55.31
2017-06-09T07:45:05.633Z,55.13
2017-06-09T07:47:35.715Z,54.03
2017-06-09T07:50:05.580Z,54.23
2017-06-09T07:52:35.506Z,53.37
2017-06-09T07:55:05.360Z,52.43
2017-06-09T07:57:35.264Z,52.27
2017-06-09T08:00:05.160Z,51.84
2017-06-09T08:02:35.034Z,51.94
2017-06-09T08:05:04.923Z,51.71
2017-06-09T08:07:34.913Z,50.91
2017-06-09T08:10:05.376Z,51.23
2017-06-09T08:12:35.224Z,51.50
2017-06-09T08:15:05.110Z,50.87
2017-06-09T08:17:35.220Z,49.83
2017-06-09T08:20:05.151Z,50.08
2017-06-09T08:22:35.075Z,49.47
2017-06-09T08:25:04.944Z,49.08
2017-06-09T08:27:34.794Z,48.51
2017-06-09T08:30:04.661Z,47.60
2017-06-09T08:32:34.550Z,47.52
2017-06-09T08:35:04.446Z,46.94
2017-06-09T08:37:34.299Z,46.14
2017-06-09T08:40:04.186Z,44.51
2017-06-09T08:42:34.036Z,45.34
2017-06-09T08:45:03.920Z,44.50
2017-06-09T08:47:33.799Z,45.13
2017-06-09T08:50:03.647Z,45.43
2017-06-09T08:52:33.549Z,43.95
2017-06-09T08:55:03.419Z,44.60
2017-06-09T08:57:33.296Z,43.41
2017-06-09T09:00:03.174Z,44.03
2017-06-09T09:02:33.968Z,44.06
2017-06-09T09:05:03.863Z,44.01
2017-06-09T09:07:33.716Z,42.82
2017-06-09T09:10:03.632Z,42.70
2017-06-09T09:12:33.480Z,41.32
2017-06-09T09:15:03.386Z,42.63
2017-06-09T09:17:36.339Z,41.44
2017-06-09T09:20:06.263Z,41.42
2017-06-09T09:22:36.109Z,40.53
2017-06-09T09:25:05.990Z,40.93
2017-06-09T09:27:35.884Z,40.46
2017-06-09T09:30:05.741Z,40.12
2017-06-09T09:32:35.632Z,39.06
2017-06-09T09:35:05.531Z,40.52
2017-06-09T09:37:35.416Z,40.02
2017-06-09T09:40:05.291Z,39.16
2017-06-09T09:42:35.153Z,40.46
2017-06-09T09:45:05.056Z,40.78
2017-06-09T09:47:34.912Z,39.97
2017-06-09T09:50:04.763Z,40.94
2017-06-09T09:52:34.633Z,39.10
2017-06-09T09:55:04.497Z,39.28
2017-06-09T09:57:34.400Z,39.28
2017-06-09T10:00:03.907Z,39.11
2017-06-09T10:02:33.769Z,38.58
2017-06-09T10:05:03.659Z,39.37
2017-06-09T10:07:33.511Z,39.67
2017-06-09T10:10:03.410Z,39.58
2017-06-09T10:12:33.276Z,39.58
2017-06-09T10:15:03.186Z,39.42
2017-06-09T10:17:33.050Z,38.57
2017-06-09T10:20:02.899Z,39.56
2017-06-09T10:22:32.780Z,39.94
2017-06-09T10:25:02.647Z,40.04
2017-06-09T10:27:32.596Z,39.55
2017-06-09T10:30:02.475Z,39.64
2017-06-09T10:32:32.338Z,40.04
2017-06-09T10:35:02.226Z,39.29
2017-06-09T10:37:32.095Z,40.12
2017-06-09T10:40:02.040Z,40.89
2017-06-09T10:42:31.888Z,40.46
2017-06-09T10:45:01.992Z,41.12
2017-06-09T10:47:31.896Z,41.64
2017-06-09T10:50:01.756Z,41.22
2017-06-09T10:52:31.653Z,41.87
2017-06-09T10:55:01.495Z,41.91
2017-06-09T10:57:31.373Z,40.58
2017-06-09T11:00:01.323Z,41.38
2017-06-09T11:02:31.208Z,40.92
2017-06-09T11:05:01.102Z,40.49
2017-06-09T11:07:30.965Z,40.07
2017-06-09T11:10:00.884Z,41.84
2017-06-09T11:12:30.360Z,39.86
2017-06-09T11:14:59.881Z,40.94
2017-06-09T11:17:29.766Z,41.14
2017-06-09T11:19:59.253Z,39.10
2017-06-09T11:22:29.189Z,39.81
2017-06-09T11:24:59.058Z,39.76
2017-06-09T11:27:28.439Z,39.38
2017-06-09T11:29:58.338Z,39.92
2017-06-09T11:32:27.473Z,40.02
2017-06-09T11:34:57.382Z,39.63
2017-06-09T11:37:26.883Z,40.50
2017-06-09T11:39:56.746Z,40.73
2017-06-09T11:42:26.271Z,38.77
2017-06-09T11:44:56.132Z,39.28
2017-06-09T11:47:25.719Z,38.45
2017-06-09T11:49:55.228Z,39.02
2017-06-09T11:52:24.750Z,38.98
2017-06-09T11:54:54.631Z,38.65
2017-06-09T11:57:24.485Z,38.65
2017-06-09T11:59:54.007Z,38.74
2017-06-09T12:02:22.947Z,39.48
2017-06-09T12:04:52.795Z,40.58
2017-06-09T12:07:22.682Z,40.21
2017-06-09T12:09:52.388Z,40.38
2017-06-09T12:12:22.299Z,41.26
2017-06-09T12:14:52.179Z,40.17
2017-06-09T12:17:22.041Z,40.91
2017-06-09T12:19:51.911Z,41.43
2017-06-09T12:22:21.800Z,39.08
2017-06-09T12:24:51.704Z,38.75
2017-06-09T12:27:21.561Z,37.14
2017-06-09T12:29:51.444Z,35.69
2017-06-09T12:32:21.335Z,35.96
2017-06-09T12:34:51.203Z,36.50
2017-06-09T12:37:21.240Z,35.20
2017-06-09T12:39:51.085Z,36.14
2017-06-09T12:42:20.949Z,37.13
2017-06-09T12:44:50.827Z,36.47
2017-06-09T12:47:20.667Z,37.27
2017-06-09T12:49:50.575Z,37.47
2017-06-09T12:52:20.473Z,38.68
2017-06-09T12:54:50.373Z,37.43
2017-06-09T12:57:20.223Z,36.05
2017-06-09T12:59:50.104Z,37.18
2017-06-09T13:02:19.966Z,37.72
2017-06-09T13:04:49.812Z,37.23
2017-06-09T13:07:19.716Z,37.33
2017-06-09T13:09:49.567Z,37.90
2017-06-09T13:12:19.463Z,38.72
2017-06-09T13:14:49.342Z,39.10
2017-06-09T13:17:19.180Z,40.03
2017-06-09T13:19:49.074Z,37.57
2017-06-09T13:22:18.932Z,36.83
2017-06-09T13:24:48.780Z,36.66
2017-06-09T13:27:18.657Z,37.78
2017-06-09T13:29:48.508Z,38.14
2017-06-09T13:32:18.460Z,38.36
2017-06-09T13:34:48.394Z,38.59
2017-06-09T13:37:18.259Z,38.94
2017-06-09T13:39:48.129Z,39.46
2017-06-09T13:42:18.005Z,37.89
2017-06-09T13:44:47.910Z,35.93
2017-06-09T13:47:17.782Z,36.42
2017-06-09T13:49:47.633Z,36.43
2017-06-09T13:52:17.556Z,36.40
2017-06-09T13:54:47.406Z,37.07
2017-06-09T13:57:17.319Z,37.03
2017-06-09T13:59:47.163Z,37.29
2017-06-09T14:02:17.075Z,38.82
2017-06-09T14:04:46.925Z,37.14
2017-06-09T14:07:16.823Z,37.53
2017-06-09T14:09:46.707Z,37.69
2017-06-09T14:12:16.556Z,38.28
2017-06-09T14:14:46.479Z,38.49
2017-06-09T14:17:16.330Z,38.04
2017-06-09T14:19:46.178Z,38.25
2017-06-09T14:22:16.076Z,37.99
2017-06-09T14:24:45.939Z,37.81
2017-06-09T14:27:15.850Z,37.47
2017-06-09T14:29:45.711Z,36.68
2017-06-09T14:32:15.564Z,36.99
2017-06-09T14:34:45.483Z,37.86
2017-06-09T14:37:15.335Z,38.54
2017-06-09T14:39:45.238Z,37.50
2017-06-09T14:42:15.105Z,37.58
2017-06-09T14:44:44.956Z,38.04
2017-06-09T14:47:14.851Z,38.11
2017-06-09T14:49:44.529Z,38.59
2017-06-09T14:52:14.419Z,38.74
2017-06-09T14:54:44.268Z,38.87
2017-06-09T14:57:14.133Z,38.86
2017-06-09T14:59:44.033Z,39.13
2017-06-09T15:02:13.881Z,39.64
2017-06-09T15:04:43.777Z,40.20
2017-06-09T15:07:13.633Z,39.96
2017-06-09T15:09:43.495Z,40.81
2017-06-09T15:12:13.376Z,41.27
2017-06-09T15:14:43.231Z,41.51
2017-06-09T15:17:13.131Z,41.92
2017-06-09T15:19:43.221Z,43.69
2017-06-09T15:22:13.165Z,44.93
2017-06-09T15:24:43.037Z,45.86
2017-06-09T15:27:12.898Z,46.19
2017-06-09T15:29:42.807Z,46.19
2017-06-09T15:32:12.663Z,46.21
2017-06-09T15:34:42.513Z,46.52
2017-06-09T15:37:12.397Z,46.97
2017-06-09T15:39:42.260Z,47.17
2017-06-09T15:42:12.213Z,47.16
2017-06-09T15:44:42.082Z,47.71
2017-06-09T15:47:11.941Z,47.95
2017-06-09T15:49:41.826Z,48.28
2017-06-09T15:52:11.768Z,48.18
2017-06-09T15:54:41.703Z,48.41
2017-06-09T15:57:12.714Z,48.89
2017-06-09T15:59:43.073Z,48.91
2017-06-09T16:02:12.927Z,49.11
2017-06-09T16:04:42.798Z,49.20
2017-06-09T16:07:12.667Z,49.35
2017-06-09T16:09:42.536Z,49.38
2017-06-09T16:12:13.571Z,49.34
2017-06-09T16:14:43.464Z,50.09
2017-06-09T16:17:13.318Z,50.33
2017-06-09T16:19:43.225Z,50.94
2017-06-09T16:22:13.090Z,51.89
2017-06-09T16:24:42.812Z,52.74
2017-06-09T16:27:12.672Z,53.15
2017-06-09T16:29:46.098Z,53.13
2017-06-09T16:32:15.974Z,53.47
2017-06-09T16:34:45.897Z,54.06
2017-06-09T16:37:15.799Z,54.11
2017-06-09T16:39:45.687Z,54.19
2017-06-09T16:42:15.535Z,54.34
2017-06-09T16:44:45.472Z,54.40
2017-06-09T16:47:15.486Z,54.70
2017-06-09T16:49:45.373Z,54.81
2017-06-09T16:52:15.285Z,55.08
2017-06-09T16:54:46.790Z,55.22
2017-06-09T16:57:16.758Z,55.64
2017-06-09T16:59:46.599Z,56.31
2017-06-09T17:02:16.467Z,57.29
2017-06-09T17:04:46.359Z,58.06
2017-06-09T17:07:16.207Z,57.60
2017-06-09T17:09:46.136Z,56.66
2017-06-09T17:12:15.991Z,54.81
2017-06-09T17:14:45.865Z,54.65
2017-06-09T17:17:15.875Z,54.52
2017-06-09T17:19:45.847Z,54.72
2017-06-09T17:22:15.764Z,54.64
2017-06-09T17:24:45.621Z,54.57
2017-06-09T17:27:15.471Z,54.63
2017-06-09T17:29:45.388Z,54.72
2017-06-09T17:32:15.259Z,54.65
2017-06-09T17:34:45.167Z,54.81
2017-06-09T17:37:15.028Z,54.94
2017-06-09T17:39:44.884Z,54.92
2017-06-09T17:42:14.760Z,55.12
2017-06-09T17:44:44.604Z,55.48
2017-06-09T17:47:14.512Z,55.50
2017-06-09T17:49:44.372Z,55.28
2017-06-09T17:52:14.225Z,55.32
2017-06-09T17:54:44.165Z,55.60
2017-06-09T17:57:14.059Z,56.06
2017-06-09T17:59:43.974Z,55.70
2017-06-09T18:02:13.829Z,55.71
2017-06-09T18:04:43.752Z,56.02
2017-06-09T18:07:13.605Z,56.14
2017-06-09T18:09:43.476Z,56.53
2017-06-09T18:12:13.361Z,56.66
2017-06-09T18:14:43.215Z,56.79
2017-06-09T18:17:13.145Z,56.58
2017-06-09T18:19:42.992Z,56.72
2017-06-09T18:22:12.876Z,56.93
2017-06-09T18:24:42.842Z,57.11
2017-06-09T18:27:12.701Z,57.02
2017-06-09T18:29:42.629Z,56.87
2017-06-09T18:32:12.488Z,56.71
2017-06-09T18:34:42.357Z,56.96
2017-06-09T18:37:12.254Z,57.06
2017-06-09T18:39:42.126Z,57.13
2017-06-09T18:42:12.076Z,57.42
2017-06-09T18:44:41.927Z,57.57
2017-06-09T18:47:11.840Z,57.48
2017-06-09T18:49:41.739Z,58.07
2017-06-09T18:52:11.598Z,57.90
2017-06-09T18:54:41.491Z,57.88
2017-06-09T18:57:11.347Z,58.06
2017-06-09T18:59:41.242Z,58.23
2017-06-09T19:02:11.090Z,58.61
2017-06-09T19:04:40.944Z,58.93
2017-06-09T19:07:10.834Z,59.08
2017-06-09T19:09:40.688Z,59.15
2017-06-09T19:12:10.609Z,59.43
2017-06-09T19:14:40.471Z,59.29
2017-06-09T19:17:10.327Z,59.78
2017-06-09T19:19:41.144Z,59.78
2017-06-09T19:22:10.987Z,59.61
2017-06-09T19:24:40.888Z,59.52
2017-06-09T19:27:10.740Z,59.84
2017-06-09T19:29:40.648Z,60.13
2017-06-09T19:32:10.511Z,60.11
2017-06-09T19:34:40.361Z,60.33
2017-06-09T19:37:10.982Z,60.47
2017-06-09T19:39:40.570Z,60.50
2017-06-09T19:42:10.605Z,60.21
2017-06-09T19:44:40.475Z,60.06
2017-06-09T19:47:10.334Z,59.90
2017-06-09T19:49:40.227Z,60.01
2017-06-09T19:52:10.078Z,60.10
2017-06-09T19:54:39.974Z,60.06
2017-06-09T19:57:09.841Z,55.32
2017-06-09T19:59:39.699Z,54.67
2017-06-09T20:02:09.589Z,54.69
2017-06-09T20:04:39.443Z,54.55
2017-06-09T20:07:09.370Z,53.82
2017-06-09T20:09:39.215Z,53.12
2017-06-09T20:12:09.161Z,54.11
2017-06-09T20:14:39.017Z,54.91
2017-06-09T20:17:08.895Z,57.16
2017-06-09T20:19:38.772Z,57.59
2017-06-09T20:22:08.645Z,56.95
2017-06-09T20:24:38.636Z,57.18
2017-06-09T20:27:09.491Z,58.44
2017-06-09T20:29:39.403Z,58.83
2017-06-09T20:32:09.255Z,57.70
2017-06-09T20:34:39.238Z,58.88
2017-06-09T20:37:09.137Z,57.84
2017-06-09T20:39:39.035Z,57.74
2017-06-09T20:42:08.917Z,57.72
2017-06-09T20:44:38.783Z,57.94
2017-06-09T20:47:08.686Z,60.38
2017-06-09T20:49:38.556Z,60.83
2017-06-09T20:52:08.432Z,60.38
2017-06-09T20:54:38.316Z,59.80
2017-06-09T20:57:08.195Z,60.50
2017-06-09T20:59:38.101Z,60.63
2017-06-09T21:02:07.953Z,62.38
2017-06-09T21:04:37.836Z,63.55
2017-06-09T21:07:07.746Z,65.15
2017-06-09T21:09:37.592Z,65.62
2017-06-09T21:12:07.494Z,64.90
2017-06-09T21:14:37.002Z,65.15
2017-06-09T21:17:10.024Z,64.87
2017-06-09T21:19:39.888Z,65.31
2017-06-09T21:22:09.775Z,65.84
2017-06-09T21:24:39.656Z,66.19
2017-06-09T21:27:09.506Z,66.28
2017-06-09T21:29:39.425Z,67.56
2017-06-09T21:32:09.290Z,66.91
2017-06-09T21:34:39.149Z,66.78
2017-06-09T21:37:09.028Z,66.45
2017-06-09T21:39:38.923Z,66.70
2017-06-09T21:42:08.845Z,66.09
2017-06-09T21:44:38.698Z,66.32
2017-06-09T21:47:08.568Z,66.06
2017-06-09T21:49:38.468Z,65.89
2017-06-09T21:52:08.340Z,65.81
2017-06-09T21:54:38.231Z,66.27
2017-06-09T21:57:08.086Z,66.30
2017-06-09T21:59:37.944Z,66.15
2017-06-09T22:02:08.036Z,66.38
2017-06-09T22:04:37.896Z,66.71
2017-06-09T22:07:07.811Z,66.28
2017-06-09T22:09:37.660Z,66.15
2017-06-09T22:12:07.520Z,66.47
2017-06-09T22:14:37.440Z,66.33
2017-06-09T22:17:07.295Z,66.59
2017-06-09T22:19:37.231Z,66.44
2017-06-09T22:22:07.098Z,66.55
2017-06-09T22:24:36.973Z,67.08
2017-06-09T22:27:06.862Z,67.21
2017-06-09T22:29:36.734Z,67.09
2017-06-09T22:32:06.646Z,67.20
2017-06-09T22:34:36.496Z,66.90
2017-06-09T22:37:06.399Z,67.35
2017-06-09T22:39:36.283Z,67.46
2017-06-09T22:42:06.162Z,67.44
2017-06-09T22:44:36.051Z,67.65
2017-06-09T22:47:05.911Z,67.40
2017-06-09T22:49:35.816Z,67.24
2017-06-09T22:52:05.682Z,67.55
2017-06-09T22:54:35.576Z,67.60
2017-06-09T22:57:05.420Z,67.64
2017-06-09T22:59:35.333Z,67.97
2017-06-09T23:02:05.283Z,67.39
2017-06-09T23:04:35.164Z,67.59
2017-06-09T23:07:05.030Z,68.08
2017-06-09T23:09:34.933Z,68.14
2017-06-09T23:12:04.869Z,68.63
2017-06-09T23:14:34.724Z,68.42
2017-06-09T23:17:04.659Z,68.82
2017-06-09T23:19:34.607Z,69.04
2017-06-09T23:22:04.271Z,69.32
2017-06-09T23:24:39.692Z,69.35
2017-06-09T23:27:09.353Z,69.82
2017-06-09T23:29:41.396Z,70.06
2017-06-09T23:32:11.055Z,69.79
2017-06-09T23:34:40.964Z,69.83
2017-06-09T23:37:10.815Z,69.70
2017-06-09T23:39:40.672Z,70.06
2017-06-09T23:42:10.631Z,70.09
2017-06-09T23:44:40.483Z,70.28
2017-06-09T23:47:10.441Z,70.14
2017-06-09T23:49:40.291Z,70.08
2017-06-09T23:52:10.186Z,70.18
2017-06-09T23:54:40.080Z,70.60
2017-06-09T23:57:09.940Z,70.73
2017-06-09T23:59:39.880Z,70.77
